sensor_id;sensor_type;location;lat;lon;timestamp;P1;durP1;ratioP1;P2;durP2;ratioP2
46705;SDS011;33519;50.712;7.124;2022-12-13T00:00:45;46.33;;;19.75;;
46705;SDS011;33519;50.712;7.124;2022-12-13T00:03:12;48.30;;;21.67;;
46705;SDS011;33519;50.712;7.124;2022-12-13T00:05:42;43.22;;;20.58;;
46705;SDS011;33519;50.712;7.124;2022-12-13T00:08:10;38.33;;;19.92;;
46705;SDS011;33519;50.712;7.124;2022-12-13T00:10:36;43.67;;;21.17;;
46705;SDS011;33519;50.712;7.124;2022-12-13T00:13:03;38.97;;;20.70;;
46705;SDS011;33519;50.712;7.124;2022-12-13T00:15:30;41.20;;;22.00;;
46705;SDS011;33519;50.712;7.124;2022-12-13T00:17:56;45.15;;;21.58;;
46705;SDS011;33519;50.712;7.124;2022-12-13T00:20:23;36.60;;;20.27;;
46705;SDS011;33519;50.712;7.124;2022-12-13T00:22:50;44.72;;;21.35;;
46705;SDS011;33519;50.712;7.124;2022-12-13T00:25:17;46.58;;;21.42;;
46705;SDS011;33519;50.712;7.124;2022-12-13T00:27:46;37.28;;;21.48;;
46705;SDS011;33519;50.712;7.124;2022-12-13T00:30:13;46.60;;;21.27;;
46705;SDS011;33519;50.712;7.124;2022-12-13T00:32:39;37.22;;;21.23;;
46705;SDS011;33519;50.712;7.124;2022-12-13T00:35:06;40.70;;;20.80;;
46705;SDS011;33519;50.712;7.124;2022-12-13T00:37:33;42.33;;;21.52;;
46705;SDS011;33519;50.712;7.124;2022-12-13T00:39:59;36.20;;;19.33;;
46705;SDS011;33519;50.712;7.124;2022-12-13T00:42:26;45.45;;;22.88;;
46705;SDS011;33519;50.712;7.124;2022-12-13T00:44:53;47.55;;;21.65;;
46705;SDS011;33519;50.712;7.124;2022-12-13T00:47:19;52.65;;;24.95;;
46705;SDS011;33519;50.712;7.124;2022-12-13T00:49:47;44.95;;;23.45;;
46705;SDS011;33519;50.712;7.124;2022-12-13T00:52:14;51.42;;;24.00;;
46705;SDS011;33519;50.712;7.124;2022-12-13T00:54:40;46.90;;;22.85;;
46705;SDS011;33519;50.712;7.124;2022-12-13T00:57:07;54.85;;;24.27;;
46705;SDS011;33519;50.712;7.124;2022-12-13T00:59:34;52.90;;;24.30;;
46705;SDS011;33519;50.712;7.124;2022-12-13T01:02:00;50.35;;;24.38;;
46705;SDS011;33519;50.712;7.124;2022-12-13T01:04:27;53.35;;;24.70;;
46705;SDS011;33519;50.712;7.124;2022-12-13T01:06:53;46.35;;;23.83;;
46705;SDS011;33519;50.712;7.124;2022-12-13T01:09:21;48.97;;;24.30;;
46705;SDS011;33519;50.712;7.124;2022-12-13T01:11:55;42.50;;;22.23;;
46705;SDS011;33519;50.712;7.124;2022-12-13T01:14:27;49.38;;;24.30;;
46705;SDS011;33519;50.712;7.124;2022-12-13T01:16:54;47.42;;;22.98;;
46705;SDS011;33519;50.712;7.124;2022-12-13T01:19:22;46.65;;;23.08;;
46705;SDS011;33519;50.712;7.124;2022-12-13T01:21:53;43.83;;;23.33;;
46705;SDS011;33519;50.712;7.124;2022-12-13T01:24:21;42.70;;;21.67;;
46705;SDS011;33519;50.712;7.124;2022-12-13T01:26:49;46.30;;;22.30;;
46705;SDS011;33519;50.712;7.124;2022-12-13T01:29:22;42.38;;;22.75;;
46705;SDS011;33519;50.712;7.124;2022-12-13T01:31:51;39.10;;;16.42;;
46705;SDS011;33519;50.712;7.124;2022-12-13T01:34:19;51.47;;;23.70;;
46705;SDS011;33519;50.712;7.124;2022-12-13T01:36:52;51.30;;;22.48;;
46705;SDS011;33519;50.712;7.124;2022-12-13T01:39:23;46.17;;;23.02;;
46705;SDS011;33519;50.712;7.124;2022-12-13T01:47:45;48.72;;;22.98;;
46705;SDS011;33519;50.712;7.124;2022-12-13T01:50:18;49.78;;;23.52;;
46705;SDS011;33519;50.712;7.124;2022-12-13T01:52:48;51.13;;;26.13;;
46705;SDS011;33519;50.712;7.124;2022-12-13T01:55:17;52.00;;;24.92;;
46705;SDS011;33519;50.712;7.124;2022-12-13T01:57:45;64.65;;;26.13;;
46705;SDS011;33519;50.712;7.124;2022-12-13T02:00:15;56.92;;;25.88;;
46705;SDS011;33519;50.712;7.124;2022-12-13T02:02:42;47.13;;;23.50;;
46705;SDS011;33519;50.712;7.124;2022-12-13T02:05:15;58.55;;;24.52;;
46705;SDS011;33519;50.712;7.124;2022-12-13T02:07:49;52.50;;;25.75;;
46705;SDS011;33519;50.712;7.124;2022-12-13T02:10:16;56.13;;;25.23;;
46705;SDS011;33519;50.712;7.124;2022-12-13T02:12:44;58.50;;;27.05;;
46705;SDS011;33519;50.712;7.124;2022-12-13T02:15:12;53.65;;;25.65;;
46705;SDS011;33519;50.712;7.124;2022-12-13T02:23:40;46.78;;;22.05;;
46705;SDS011;33519;50.712;7.124;2022-12-13T02:29:39;45.47;;;24.08;;
46705;SDS011;33519;50.712;7.124;2022-12-13T02:32:42;52.58;;;23.85;;
46705;SDS011;33519;50.712;7.124;2022-12-13T02:35:15;52.88;;;24.75;;
46705;SDS011;33519;50.712;7.124;2022-12-13T02:37:58;63.05;;;24.73;;
46705;SDS011;33519;50.712;7.124;2022-12-13T02:40:42;54.95;;;26.55;;
46705;SDS011;33519;50.712;7.124;2022-12-13T02:43:23;53.90;;;23.63;;
46705;SDS011;33519;50.712;7.124;2022-12-13T02:45:59;51.70;;;25.75;;
46705;SDS011;33519;50.712;7.124;2022-12-13T02:48:29;52.92;;;25.17;;
46705;SDS011;33519;50.712;7.124;2022-12-13T02:51:01;58.80;;;25.13;;
46705;SDS011;33519;50.712;7.124;2022-12-13T02:53:30;57.72;;;25.88;;
46705;SDS011;33519;50.712;7.124;2022-12-13T02:55:59;60.13;;;30.35;;
46705;SDS011;33519;50.712;7.124;2022-12-13T02:58:30;52.65;;;27.13;;
46705;SDS011;33519;50.712;7.124;2022-12-13T03:14:32;61.72;;;29.42;;
46705;SDS011;33519;50.712;7.124;2022-12-13T03:17:03;75.40;;;30.02;;
46705;SDS011;33519;50.712;7.124;2022-12-13T03:19:32;67.88;;;29.85;;
46705;SDS011;33519;50.712;7.124;2022-12-13T03:21:59;64.85;;;27.67;;
46705;SDS011;33519;50.712;7.124;2022-12-13T03:24:30;64.82;;;30.92;;
46705;SDS011;33519;50.712;7.124;2022-12-13T03:26:56;64.72;;;30.90;;
46705;SDS011;33519;50.712;7.124;2022-12-13T03:29:23;60.83;;;29.10;;
46705;SDS011;33519;50.712;7.124;2022-12-13T03:31:50;62.10;;;27.92;;
46705;SDS011;33519;50.712;7.124;2022-12-13T03:34:18;56.75;;;28.55;;
46705;SDS011;33519;50.712;7.124;2022-12-13T03:36:48;68.30;;;31.17;;
46705;SDS011;33519;50.712;7.124;2022-12-13T03:39:16;66.50;;;29.38;;
46705;SDS011;33519;50.712;7.124;2022-12-13T03:41:43;60.28;;;29.60;;
46705;SDS011;33519;50.712;7.124;2022-12-13T03:44:10;67.93;;;30.30;;
46705;SDS011;33519;50.712;7.124;2022-12-13T03:46:37;62.20;;;29.45;;
46705;SDS011;33519;50.712;7.124;2022-12-13T03:49:03;57.97;;;27.67;;
46705;SDS011;33519;50.712;7.124;2022-12-13T03:51:30;60.25;;;28.88;;
46705;SDS011;33519;50.712;7.124;2022-12-13T03:53:57;66.43;;;28.38;;
46705;SDS011;33519;50.712;7.124;2022-12-13T03:56:24;62.67;;;30.15;;
46705;SDS011;33519;50.712;7.124;2022-12-13T03:58:51;60.75;;;29.33;;
46705;SDS011;33519;50.712;7.124;2022-12-13T04:01:18;59.70;;;29.50;;
46705;SDS011;33519;50.712;7.124;2022-12-13T04:03:45;59.13;;;29.15;;
46705;SDS011;33519;50.712;7.124;2022-12-13T04:06:15;57.08;;;27.42;;
46705;SDS011;33519;50.712;7.124;2022-12-13T04:08:48;59.53;;;27.45;;
46705;SDS011;33519;50.712;7.124;2022-12-13T04:11:16;58.33;;;28.73;;
46705;SDS011;33519;50.712;7.124;2022-12-13T04:14:08;61.72;;;27.50;;
46705;SDS011;33519;50.712;7.124;2022-12-13T04:16:36;53.92;;;29.33;;
46705;SDS011;33519;50.712;7.124;2022-12-13T04:19:02;57.47;;;27.85;;
46705;SDS011;33519;50.712;7.124;2022-12-13T04:21:29;57.75;;;26.00;;
46705;SDS011;33519;50.712;7.124;2022-12-13T04:23:56;55.08;;;26.75;;
46705;SDS011;33519;50.712;7.124;2022-12-13T04:26:26;55.00;;;26.95;;
46705;SDS011;33519;50.712;7.124;2022-12-13T04:28:53;53.88;;;26.55;;
46705;SDS011;33519;50.712;7.124;2022-12-13T04:31:20;47.78;;;24.60;;
46705;SDS011;33519;50.712;7.124;2022-12-13T04:33:48;56.92;;;25.70;;
46705;SDS011;33519;50.712;7.124;2022-12-13T04:36:14;47.67;;;24.52;;
46705;SDS011;33519;50.712;7.124;2022-12-13T04:38:57;57.88;;;25.67;;
46705;SDS011;33519;50.712;7.124;2022-12-13T04:41:25;44.75;;;23.30;;
46705;SDS011;33519;50.712;7.124;2022-12-13T04:44:00;48.63;;;24.15;;
46705;SDS011;33519;50.712;7.124;2022-12-13T04:46:27;52.30;;;23.05;;
46705;SDS011;33519;50.712;7.124;2022-12-13T04:48:54;56.92;;;24.17;;
46705;SDS011;33519;50.712;7.124;2022-12-13T04:51:20;44.65;;;21.88;;
46705;SDS011;33519;50.712;7.124;2022-12-13T04:53:47;47.90;;;23.80;;
46705;SDS011;33519;50.712;7.124;2022-12-13T04:56:14;42.97;;;22.40;;
46705;SDS011;33519;50.712;7.124;2022-12-13T04:58:40;44.40;;;22.55;;
46705;SDS011;33519;50.712;7.124;2022-12-13T05:01:08;47.70;;;21.27;;
46705;SDS011;33519;50.712;7.124;2022-12-13T05:03:36;42.27;;;22.37;;
46705;SDS011;33519;50.712;7.124;2022-12-13T05:06:07;44.83;;;23.02;;
46705;SDS011;33519;50.712;7.124;2022-12-13T05:08:52;39.85;;;22.20;;
46705;SDS011;33519;50.712;7.124;2022-12-13T05:11:26;46.80;;;24.45;;
46705;SDS011;33519;50.712;7.124;2022-12-13T05:14:00;41.53;;;22.60;;
46705;SDS011;33519;50.712;7.124;2022-12-13T05:16:27;46.72;;;22.77;;
46705;SDS011;33519;50.712;7.124;2022-12-13T05:18:54;44.88;;;22.30;;
46705;SDS011;33519;50.712;7.124;2022-12-13T05:21:21;45.17;;;20.90;;
46705;SDS011;33519;50.712;7.124;2022-12-13T05:23:47;47.22;;;24.73;;
46705;SDS011;33519;50.712;7.124;2022-12-13T05:26:14;46.97;;;24.58;;
46705;SDS011;33519;50.712;7.124;2022-12-13T05:28:40;44.67;;;23.42;;
46705;SDS011;33519;50.712;7.124;2022-12-13T05:31:08;46.70;;;24.45;;
46705;SDS011;33519;50.712;7.124;2022-12-13T05:33:49;50.90;;;23.35;;
46705;SDS011;33519;50.712;7.124;2022-12-13T05:36:16;46.95;;;24.75;;
46705;SDS011;33519;50.712;7.124;2022-12-13T05:38:43;44.13;;;22.48;;
46705;SDS011;33519;50.712;7.124;2022-12-13T05:41:12;52.17;;;22.13;;
46705;SDS011;33519;50.712;7.124;2022-12-13T05:43:42;52.78;;;22.48;;
46705;SDS011;33519;50.712;7.124;2022-12-13T05:46:09;46.92;;;24.23;;
46705;SDS011;33519;50.712;7.124;2022-12-13T05:48:37;48.50;;;25.05;;
46705;SDS011;33519;50.712;7.124;2022-12-13T05:51:04;53.55;;;24.30;;
46705;SDS011;33519;50.712;7.124;2022-12-13T05:53:36;48.70;;;22.50;;
46705;SDS011;33519;50.712;7.124;2022-12-13T05:56:04;53.65;;;23.45;;
46705;SDS011;33519;50.712;7.124;2022-12-13T05:58:31;45.13;;;22.40;;
46705;SDS011;33519;50.712;7.124;2022-12-13T06:01:12;49.25;;;23.80;;
46705;SDS011;33519;50.712;7.124;2022-12-13T06:03:40;44.53;;;22.80;;
46705;SDS011;33519;50.712;7.124;2022-12-13T06:06:09;49.50;;;23.65;;
46705;SDS011;33519;50.712;7.124;2022-12-13T06:08:36;50.83;;;22.98;;
46705;SDS011;33519;50.712;7.124;2022-12-13T06:11:04;45.58;;;23.55;;
46705;SDS011;33519;50.712;7.124;2022-12-13T06:13:37;54.85;;;23.90;;
46705;SDS011;33519;50.712;7.124;2022-12-13T06:16:09;48.92;;;24.58;;
46705;SDS011;33519;50.712;7.124;2022-12-13T06:18:49;58.42;;;26.50;;
46705;SDS011;33519;50.712;7.124;2022-12-13T06:21:24;48.85;;;23.33;;
46705;SDS011;33519;50.712;7.124;2022-12-13T06:23:51;47.85;;;23.52;;
46705;SDS011;33519;50.712;7.124;2022-12-13T06:26:17;53.53;;;24.50;;
46705;SDS011;33519;50.712;7.124;2022-12-13T06:28:44;44.10;;;23.70;;
46705;SDS011;33519;50.712;7.124;2022-12-13T06:31:11;52.33;;;24.05;;
46705;SDS011;33519;50.712;7.124;2022-12-13T06:33:37;52.05;;;23.58;;
46705;SDS011;33519;50.712;7.124;2022-12-13T06:36:04;57.30;;;26.65;;
46705;SDS011;33519;50.712;7.124;2022-12-13T06:38:32;57.30;;;27.60;;
46705;SDS011;33519;50.712;7.124;2022-12-13T06:41:05;50.95;;;25.27;;
46705;SDS011;33519;50.712;7.124;2022-12-13T06:43:33;46.75;;;23.95;;
46705;SDS011;33519;50.712;7.124;2022-12-13T06:46:03;51.13;;;23.55;;
46705;SDS011;33519;50.712;7.124;2022-12-13T06:48:31;47.03;;;23.95;;
46705;SDS011;33519;50.712;7.124;2022-12-13T06:50:59;56.10;;;23.50;;
46705;SDS011;33519;50.712;7.124;2022-12-13T06:53:26;50.92;;;25.80;;
46705;SDS011;33519;50.712;7.124;2022-12-13T06:55:53;53.00;;;25.95;;
46705;SDS011;33519;50.712;7.124;2022-12-13T06:58:20;49.15;;;22.42;;
46705;SDS011;33519;50.712;7.124;2022-12-13T07:00:47;56.75;;;25.70;;
46705;SDS011;33519;50.712;7.124;2022-12-13T07:03:14;49.67;;;26.60;;
46705;SDS011;33519;50.712;7.124;2022-12-13T07:05:41;49.75;;;25.20;;
46705;SDS011;33519;50.712;7.124;2022-12-13T07:08:09;42.75;;;21.50;;
46705;SDS011;33519;50.712;7.124;2022-12-13T07:10:37;48.92;;;22.42;;
46705;SDS011;33519;50.712;7.124;2022-12-13T07:13:05;49.53;;;22.75;;
46705;SDS011;33519;50.712;7.124;2022-12-13T07:15:32;47.72;;;21.60;;
46705;SDS011;33519;50.712;7.124;2022-12-13T07:17:59;43.85;;;22.88;;
46705;SDS011;33519;50.712;7.124;2022-12-13T07:20:26;44.33;;;23.30;;
46705;SDS011;33519;50.712;7.124;2022-12-13T07:22:54;53.13;;;23.58;;
46705;SDS011;33519;50.712;7.124;2022-12-13T07:25:24;57.05;;;23.63;;
46705;SDS011;33519;50.712;7.124;2022-12-13T07:28:02;46.30;;;22.27;;
46705;SDS011;33519;50.712;7.124;2022-12-13T07:30:34;50.08;;;23.25;;
46705;SDS011;33519;50.712;7.124;2022-12-13T07:33:07;48.03;;;21.85;;
46705;SDS011;33519;50.712;7.124;2022-12-13T07:35:34;50.10;;;21.63;;
46705;SDS011;33519;50.712;7.124;2022-12-13T07:38:02;47.30;;;21.42;;
46705;SDS011;33519;50.712;7.124;2022-12-13T07:40:31;45.05;;;22.55;;
46705;SDS011;33519;50.712;7.124;2022-12-13T07:42:59;48.30;;;21.95;;
46705;SDS011;33519;50.712;7.124;2022-12-13T07:45:26;41.80;;;23.63;;
46705;SDS011;33519;50.712;7.124;2022-12-13T07:47:53;41.15;;;20.05;;
46705;SDS011;33519;50.712;7.124;2022-12-13T07:50:20;43.40;;;21.02;;
46705;SDS011;33519;50.712;7.124;2022-12-13T07:52:51;50.60;;;22.20;;
46705;SDS011;33519;50.712;7.124;2022-12-13T07:55:18;41.58;;;20.05;;
46705;SDS011;33519;50.712;7.124;2022-12-13T07:58:02;40.75;;;20.92;;
46705;SDS011;33519;50.712;7.124;2022-12-13T08:00:34;41.35;;;21.08;;
46705;SDS011;33519;50.712;7.124;2022-12-13T08:03:02;39.45;;;20.63;;
46705;SDS011;33519;50.712;7.124;2022-12-13T08:05:29;43.72;;;24.58;;
46705;SDS011;33519;50.712;7.124;2022-12-13T08:08:04;41.60;;;21.50;;
46705;SDS011;33519;50.712;7.124;2022-12-13T08:10:33;40.50;;;20.70;;
46705;SDS011;33519;50.712;7.124;2022-12-13T08:13:02;38.45;;;17.98;;
46705;SDS011;33519;50.712;7.124;2022-12-13T08:15:29;40.53;;;19.73;;
46705;SDS011;33519;50.712;7.124;2022-12-13T08:17:56;38.28;;;18.38;;
46705;SDS011;33519;50.712;7.124;2022-12-13T08:20:26;44.65;;;21.52;;
46705;SDS011;33519;50.712;7.124;2022-12-13T08:22:53;37.45;;;18.88;;
46705;SDS011;33519;50.712;7.124;2022-12-13T08:25:28;36.53;;;19.00;;
46705;SDS011;33519;50.712;7.124;2022-12-13T08:27:55;35.22;;;16.08;;
46705;SDS011;33519;50.712;7.124;2022-12-13T08:30:27;33.33;;;17.92;;
46705;SDS011;33519;50.712;7.124;2022-12-13T08:32:55;31.02;;;17.65;;
46705;SDS011;33519;50.712;7.124;2022-12-13T08:35:25;31.50;;;16.85;;
46705;SDS011;33519;50.712;7.124;2022-12-13T08:37:59;33.20;;;18.75;;
46705;SDS011;33519;50.712;7.124;2022-12-13T08:40:26;32.70;;;17.17;;
46705;SDS011;33519;50.712;7.124;2022-12-13T08:45:23;30.73;;;16.25;;
46705;SDS011;33519;50.712;7.124;2022-12-13T08:47:50;33.67;;;17.83;;
46705;SDS011;33519;50.712;7.124;2022-12-13T08:50:17;34.30;;;16.33;;
46705;SDS011;33519;50.712;7.124;2022-12-13T08:52:44;35.17;;;18.73;;
46705;SDS011;33519;50.712;7.124;2022-12-13T08:55:11;31.98;;;16.45;;
46705;SDS011;33519;50.712;7.124;2022-12-13T08:57:40;35.15;;;17.38;;
46705;SDS011;33519;50.712;7.124;2022-12-13T09:00:09;32.47;;;17.08;;
46705;SDS011;33519;50.712;7.124;2022-12-13T09:02:41;32.60;;;16.10;;
46705;SDS011;33519;50.712;7.124;2022-12-13T09:05:08;29.30;;;15.77;;
46705;SDS011;33519;50.712;7.124;2022-12-13T09:07:36;29.77;;;16.73;;
46705;SDS011;33519;50.712;7.124;2022-12-13T09:10:04;33.90;;;17.27;;
46705;SDS011;33519;50.712;7.124;2022-12-13T09:12:52;26.20;;;15.30;;
46705;SDS011;33519;50.712;7.124;2022-12-13T09:15:37;31.27;;;15.68;;
46705;SDS011;33519;50.712;7.124;2022-12-13T09:18:11;27.65;;;15.43;;
46705;SDS011;33519;50.712;7.124;2022-12-13T09:20:40;24.40;;;13.73;;
46705;SDS011;33519;50.712;7.124;2022-12-13T09:23:08;28.05;;;16.63;;
46705;SDS011;33519;50.712;7.124;2022-12-13T09:25:52;34.05;;;16.42;;
46705;SDS011;33519;50.712;7.124;2022-12-13T09:28:31;30.00;;;14.68;;
46705;SDS011;33519;50.712;7.124;2022-12-13T09:30:59;28.67;;;15.55;;
46705;SDS011;33519;50.712;7.124;2022-12-13T09:33:25;28.23;;;15.15;;
46705;SDS011;33519;50.712;7.124;2022-12-13T09:35:56;29.38;;;14.80;;
46705;SDS011;33519;50.712;7.124;2022-12-13T09:38:26;28.67;;;15.15;;
46705;SDS011;33519;50.712;7.124;2022-12-13T09:40:53;24.70;;;14.27;;
46705;SDS011;33519;50.712;7.124;2022-12-13T09:43:25;24.08;;;12.80;;
46705;SDS011;33519;50.712;7.124;2022-12-13T09:45:58;24.35;;;13.55;;
46705;SDS011;33519;50.712;7.124;2022-12-13T09:48:29;28.45;;;16.05;;
46705;SDS011;33519;50.712;7.124;2022-12-13T09:51:00;25.02;;;14.82;;
46705;SDS011;33519;50.712;7.124;2022-12-13T09:53:48;25.58;;;13.65;;
46705;SDS011;33519;50.712;7.124;2022-12-13T09:56:18;28.77;;;13.02;;
46705;SDS011;33519;50.712;7.124;2022-12-13T09:58:47;25.42;;;14.48;;
46705;SDS011;33519;50.712;7.124;2022-12-13T10:01:15;24.77;;;14.27;;
46705;SDS011;33519;50.712;7.124;2022-12-13T10:03:50;25.98;;;13.82;;
46705;SDS011;33519;50.712;7.124;2022-12-13T10:06:20;24.70;;;13.13;;
46705;SDS011;33519;50.712;7.124;2022-12-13T10:11:23;20.92;;;12.82;;
46705;SDS011;33519;50.712;7.124;2022-12-13T10:16:44;27.30;;;14.20;;
46705;SDS011;33519;50.712;7.124;2022-12-13T10:19:20;25.27;;;14.13;;
46705;SDS011;33519;50.712;7.124;2022-12-13T10:21:55;26.23;;;15.20;;
46705;SDS011;33519;50.712;7.124;2022-12-13T10:24:29;25.48;;;14.57;;
46705;SDS011;33519;50.712;7.124;2022-12-13T10:27:23;24.88;;;13.70;;
46705;SDS011;33519;50.712;7.124;2022-12-13T10:29:57;22.40;;;12.05;;
46705;SDS011;33519;50.712;7.124;2022-12-13T10:32:57;22.65;;;13.63;;
46705;SDS011;33519;50.712;7.124;2022-12-13T10:37:54;24.52;;;13.70;;
46705;SDS011;33519;50.712;7.124;2022-12-13T10:40:32;20.87;;;10.17;;
46705;SDS011;33519;50.712;7.124;2022-12-13T10:51:11;23.23;;;13.68;;
46705;SDS011;33519;50.712;7.124;2022-12-13T10:53:40;27.10;;;12.98;;
46705;SDS011;33519;50.712;7.124;2022-12-13T10:56:13;22.80;;;12.45;;
46705;SDS011;33519;50.712;7.124;2022-12-13T10:58:50;23.27;;;12.40;;
46705;SDS011;33519;50.712;7.124;2022-12-13T11:01:40;22.92;;;13.32;;
46705;SDS011;33519;50.712;7.124;2022-12-13T11:07:00;26.35;;;12.77;;
46705;SDS011;33519;50.712;7.124;2022-12-13T11:12:25;21.17;;;11.95;;
46705;SDS011;33519;50.712;7.124;2022-12-13T11:15:01;19.25;;;11.90;;
46705;SDS011;33519;50.712;7.124;2022-12-13T11:17:32;20.33;;;12.27;;
46705;SDS011;33519;50.712;7.124;2022-12-13T11:20:14;19.88;;;9.80;;
46705;SDS011;33519;50.712;7.124;2022-12-13T11:22:45;19.27;;;10.25;;
46705;SDS011;33519;50.712;7.124;2022-12-13T11:25:19;21.27;;;10.88;;
46705;SDS011;33519;50.712;7.124;2022-12-13T11:28:05;20.02;;;10.82;;
46705;SDS011;33519;50.712;7.124;2022-12-13T11:34:11;17.55;;;10.07;;
46705;SDS011;33519;50.712;7.124;2022-12-13T11:39:57;22.90;;;11.32;;
46705;SDS011;33519;50.712;7.124;2022-12-13T11:45:19;19.40;;;9.90;;
46705;SDS011;33519;50.712;7.124;2022-12-13T11:47:50;13.63;;;6.47;;
46705;SDS011;33519;50.712;7.124;2022-12-13T11:50:34;18.33;;;10.27;;
46705;SDS011;33519;50.712;7.124;2022-12-13T11:53:19;14.65;;;7.90;;
46705;SDS011;33519;50.712;7.124;2022-12-13T11:58:40;22.15;;;10.63;;
46705;SDS011;33519;50.712;7.124;2022-12-13T12:01:49;21.10;;;9.13;;
46705;SDS011;33519;50.712;7.124;2022-12-13T12:04:50;15.50;;;8.13;;
46705;SDS011;33519;50.712;7.124;2022-12-13T12:07:37;25.95;;;12.25;;
46705;SDS011;33519;50.712;7.124;2022-12-13T12:10:44;19.92;;;11.75;;
46705;SDS011;33519;50.712;7.124;2022-12-13T12:13:17;20.10;;;11.02;;
46705;SDS011;33519;50.712;7.124;2022-12-13T12:15:50;20.65;;;11.15;;
46705;SDS011;33519;50.712;7.124;2022-12-13T12:18:36;20.17;;;11.05;;
46705;SDS011;33519;50.712;7.124;2022-12-13T12:23:52;19.48;;;10.48;;
46705;SDS011;33519;50.712;7.124;2022-12-13T12:26:42;17.95;;;10.48;;
46705;SDS011;33519;50.712;7.124;2022-12-13T12:43:50;21.88;;;11.85;;
46705;SDS011;33519;50.712;7.124;2022-12-13T12:49:52;19.50;;;11.15;;
46705;SDS011;33519;50.712;7.124;2022-12-13T12:52:51;21.73;;;11.60;;
46705;SDS011;33519;50.712;7.124;2022-12-13T13:04:09;18.33;;;9.77;;
46705;SDS011;33519;50.712;7.124;2022-12-13T13:06:42;21.00;;;10.15;;
46705;SDS011;33519;50.712;7.124;2022-12-13T13:09:16;18.02;;;10.85;;
46705;SDS011;33519;50.712;7.124;2022-12-13T13:11:50;20.15;;;10.80;;
46705;SDS011;33519;50.712;7.124;2022-12-13T13:19:53;22.65;;;11.10;;
46705;SDS011;33519;50.712;7.124;2022-12-13T13:22:39;21.27;;;11.60;;
46705;SDS011;33519;50.712;7.124;2022-12-13T13:27:45;23.95;;;13.32;;
46705;SDS011;33519;50.712;7.124;2022-12-13T13:30:15;22.05;;;10.93;;
46705;SDS011;33519;50.712;7.124;2022-12-13T13:32:46;22.85;;;12.18;;
46705;SDS011;33519;50.712;7.124;2022-12-13T14:00:57;21.33;;;11.45;;
46705;SDS011;33519;50.712;7.124;2022-12-13T14:29:23;19.00;;;11.23;;
46705;SDS011;33519;50.712;7.124;2022-12-13T14:31:55;22.42;;;13.90;;
46705;SDS011;33519;50.712;7.124;2022-12-13T14:34:23;20.77;;;10.77;;
46705;SDS011;33519;50.712;7.124;2022-12-13T14:39:20;25.40;;;10.40;;
46705;SDS011;33519;50.712;7.124;2022-12-13T14:41:54;17.83;;;9.75;;
46705;SDS011;33519;50.712;7.124;2022-12-13T14:44:29;24.40;;;10.73;;
46705;SDS011;33519;50.712;7.124;2022-12-13T14:47:00;20.73;;;10.48;;
46705;SDS011;33519;50.712;7.124;2022-12-13T14:49:37;20.10;;;11.00;;
46705;SDS011;33519;50.712;7.124;2022-12-13T14:54:54;23.88;;;11.77;;
46705;SDS011;33519;50.712;7.124;2022-12-13T14:57:27;22.27;;;11.35;;
46705;SDS011;33519;50.712;7.124;2022-12-13T14:59:56;22.73;;;11.65;;
46705;SDS011;33519;50.712;7.124;2022-12-13T15:02:26;19.48;;;10.82;;
46705;SDS011;33519;50.712;7.124;2022-12-13T15:04:57;24.17;;;11.25;;
46705;SDS011;33519;50.712;7.124;2022-12-13T15:09:55;20.15;;;11.90;;
46705;SDS011;33519;50.712;7.124;2022-12-13T15:12:24;19.25;;;10.05;;
46705;SDS011;33519;50.712;7.124;2022-12-13T15:15:01;23.08;;;10.10;;
46705;SDS011;33519;50.712;7.124;2022-12-13T15:20:23;24.52;;;11.05;;
46705;SDS011;33519;50.712;7.124;2022-12-13T15:23:03;18.38;;;10.20;;
46705;SDS011;33519;50.712;7.124;2022-12-13T15:25:35;20.15;;;11.05;;
46705;SDS011;33519;50.712;7.124;2022-12-13T15:28:02;17.98;;;9.95;;
46705;SDS011;33519;50.712;7.124;2022-12-13T15:30:30;19.75;;;9.85;;
46705;SDS011;33519;50.712;7.124;2022-12-13T15:35:33;17.10;;;10.32;;
46705;SDS011;33519;50.712;7.124;2022-12-13T15:38:02;22.95;;;10.57;;
46705;SDS011;33519;50.712;7.124;2022-12-13T15:40:32;16.80;;;8.77;;
46705;SDS011;33519;50.712;7.124;2022-12-13T15:42:59;21.70;;;9.90;;
46705;SDS011;33519;50.712;7.124;2022-12-13T15:45:26;16.55;;;9.07;;
46705;SDS011;33519;50.712;7.124;2022-12-13T15:48:02;19.02;;;10.23;;
46705;SDS011;33519;50.712;7.124;2022-12-13T15:53:00;20.73;;;11.68;;
46705;SDS011;33519;50.712;7.124;2022-12-13T15:55:33;22.48;;;12.10;;
46705;SDS011;33519;50.712;7.124;2022-12-13T15:58:02;18.85;;;9.93;;
46705;SDS011;33519;50.712;7.124;2022-12-13T16:00:31;22.10;;;10.40;;
46705;SDS011;33519;50.712;7.124;2022-12-13T16:03:13;17.67;;;8.75;;
46705;SDS011;33519;50.712;7.124;2022-12-13T16:05:48;21.27;;;10.00;;
46705;SDS011;33519;50.712;7.124;2022-12-13T16:08:24;19.30;;;9.73;;
46705;SDS011;33519;50.712;7.124;2022-12-13T16:10:55;22.10;;;10.05;;
46705;SDS011;33519;50.712;7.124;2022-12-13T16:13:33;20.50;;;10.80;;
46705;SDS011;33519;50.712;7.124;2022-12-13T16:18:44;19.70;;;9.68;;
46705;SDS011;33519;50.712;7.124;2022-12-13T16:21:17;19.17;;;9.80;;
46705;SDS011;33519;50.712;7.124;2022-12-13T16:23:44;19.15;;;11.05;;
46705;SDS011;33519;50.712;7.124;2022-12-13T16:28:45;16.88;;;9.32;;
46705;SDS011;33519;50.712;7.124;2022-12-13T16:33:42;23.38;;;8.55;;
46705;SDS011;33519;50.712;7.124;2022-12-13T16:36:09;18.52;;;10.52;;
46705;SDS011;33519;50.712;7.124;2022-12-13T16:38:36;19.60;;;10.13;;
46705;SDS011;33519;50.712;7.124;2022-12-13T16:41:03;18.63;;;9.27;;
46705;SDS011;33519;50.712;7.124;2022-12-13T16:43:45;25.55;;;9.85;;
46705;SDS011;33519;50.712;7.124;2022-12-13T16:46:18;18.63;;;9.48;;
46705;SDS011;33519;50.712;7.124;2022-12-13T16:49:09;17.45;;;9.30;;
46705;SDS011;33519;50.712;7.124;2022-12-13T16:51:51;17.88;;;9.63;;
46705;SDS011;33519;50.712;7.124;2022-12-13T16:54:19;18.38;;;8.98;;
46705;SDS011;33519;50.712;7.124;2022-12-13T16:56:47;21.75;;;9.75;;
46705;SDS011;33519;50.712;7.124;2022-12-13T16:59:19;13.13;;;7.22;;
46705;SDS011;33519;50.712;7.124;2022-12-13T17:01:48;19.70;;;10.13;;
46705;SDS011;33519;50.712;7.124;2022-12-13T17:04:20;24.67;;;11.70;;
46705;SDS011;33519;50.712;7.124;2022-12-13T17:06:49;21.35;;;10.30;;
46705;SDS011;33519;50.712;7.124;2022-12-13T17:09:20;15.50;;;7.40;;
46705;SDS011;33519;50.712;7.124;2022-12-13T17:11:48;17.83;;;10.10;;
46705;SDS011;33519;50.712;7.124;2022-12-13T17:14:14;23.90;;;10.43;;
46705;SDS011;33519;50.712;7.124;2022-12-13T17:16:59;19.40;;;8.63;;
46705;SDS011;33519;50.712;7.124;2022-12-13T17:19:26;21.27;;;8.38;;
46705;SDS011;33519;50.712;7.124;2022-12-13T17:21:53;17.50;;;9.43;;
46705;SDS011;33519;50.712;7.124;2022-12-13T17:24:20;17.20;;;8.18;;
46705;SDS011;33519;50.712;7.124;2022-12-13T17:26:46;14.20;;;8.82;;
46705;SDS011;33519;50.712;7.124;2022-12-13T17:29:20;17.35;;;9.30;;
46705;SDS011;33519;50.712;7.124;2022-12-13T17:31:46;18.13;;;8.35;;
46705;SDS011;33519;50.712;7.124;2022-12-13T17:34:13;20.35;;;10.02;;
46705;SDS011;33519;50.712;7.124;2022-12-13T17:36:40;17.33;;;8.50;;
46705;SDS011;33519;50.712;7.124;2022-12-13T17:39:08;22.40;;;10.23;;
46705;SDS011;33519;50.712;7.124;2022-12-13T17:41:37;22.23;;;9.95;;
46705;SDS011;33519;50.712;7.124;2022-12-13T17:44:04;19.92;;;9.63;;